Webcam Meteoipassi more information Webcam Meteoipassi


Pisa torre orologio more information Pisa torre orologio


altri nostri siti meteo:

Pomeziameteo 1Sito sul meteo

Pomeziameteo DashboardSito sul meteo

Caput FrigorisSito sul meteo

BarcellonameteoSito sul meteo

MeteoipassiSito sul meteo

ViterbometeoSito sul meteo

MeteotortoretoSito sul meteo

TortoretometeolidoSito sul meteo

MeteoGonzagaSito sul meteo



Nessuna attenzione particolare richiesta.    Non ci sono allerte meteo

Report METAR

   
LIRQ - Firenze
Dati ricevuti: Jun 16 2019 4:20 am
Molto nuvoloso  
Molto nuvoloso  
   Vento: SW 5.6 km/h
Vento: SW 5.6 km/h
Temperatura: 20°C
P.to Rugiada: 18°C
Umidita: 88%
Barometro: 1015 hPa
Nuvole: Molto nuvoloso
Visibilita: oltre 10 km
dettagli cloud: Molto nuvoloso 609.6 m
LIRQ 160220Z 22003KT 180V270 9999 BKN020 20/18 Q1015
LIRP - Lucca
Dati ricevuti: Jun 16 2019 4:15 am
Molto nuvoloso  
Molto nuvoloso  
   Vento: W 3.7 km/h
Vento: W 3.7 km/h
Temperatura: 16°C
P.to Rugiada: 16°C
Umidita: 100%
Barometro: 1016 hPa
Nuvole: Molto nuvoloso
Visibilita: 7 km
dettagli cloud: Molto nuvoloso 457.2 m
LIRP 160215Z 24002KT 7000 BKN015 16/16 Q1016 NOSIG
LIRP - Livorno
Dati ricevuti: Jun 16 2019 4:15 am
Molto nuvoloso  
Molto nuvoloso  
   Vento: W 3.7 km/h
Vento: W 3.7 km/h
Temperatura: 16°C
P.to Rugiada: 16°C
Umidita: 100%
Barometro: 1016 hPa
Nuvole: Molto nuvoloso
Visibilita: 7 km
dettagli cloud: Molto nuvoloso 457.2 m
LIRP 160215Z 24002KT 7000 BKN015 16/16 Q1016 NOSIG
LIMP - Parma
Dati ricevuti: Jun 15 2019 8:50 pm
DATI Obsoleti
Sereno  
Sereno  
   Vento: W 18.5 km/h
Vento: W 18.5 km/h
Temperatura: 26°C
P.to Rugiada: 16°C
Umidita: 54%
Barometro: 1012 hPa
Visibilita: oltre 10 km
dettagli cloud: Sereno
LIMP 151850Z 24010KT CAVOK 26/16 Q1012
LIRF - Roma
Dati ricevuti: Jun 16 2019 4:20 am
Sereno  
Sereno  
   Vento: W 5.6 km/h
Vento: W 5.6 km/h
Temperatura: 19°C
P.to Rugiada: 17°C
Umidita: 88%
Barometro: 1014 hPa
Visibilita: oltre 10 km
dettagli cloud: Sereno
LIRF 160220Z 29003KT CAVOK 19/17 Q1014 NOSIG
 

Script sviluppato da  Saratoga-weather.org Adattato per il modello da  Weerstation Leuven

Potete trovare le nostre info meteo anche a:

European Weather Network

Weather Underground

AWEKAS

HAMweather, WeatherForYou, PWS Weather

Strumentazione usata:

Stazione meteo
Oregon Scientific WMR88

Programma gestore dati meteo
WVIEW

Server per i dati meteo
WDS-5

Provider
Anemos WDS-5

Oregon Scientific WMR88

WVIEW

WDS-5

Anemos WDS-5